Fort Washington, Maryland
Current Conditions -  °F | °C
As of 7:52 PM on Monday 20 Oct 2014 (Local Time) from KDCA Reporting Station
Broken Clouds Broken Clouds  
Wind Chill: 63°   Ceiling: 20000
Heat Index: 63°   Visibility: 10mi
Dew Point: 46°   Wind: 10mph
Humidity: 54%   Direction: 170°S
Pressure: 29.96"   Gusts: NA
Location:  38.74°N, 77°W
Report Text: KDCA 202352Z 17009KT 10SM BKN200 17/08 A2996 RMK AO2 SLP147 T01720078 10211 20172 53005
Loading
Personal Weather Stations






























Interactive Weather Map
Tropical Storm Tracking
New forecast layout! Learn more

10-Day Weather Forecast

Advertisements
Track Severe Weather on mobile